sensor_id;sensor_type;location;lat;lon;timestamp;P1;durP1;ratioP1;P2;durP2;ratioP2
30346;SDS011;19047;44.782;20.468;2022-10-23T09:57:40;7.03;;;6.15;;
30346;SDS011;19047;44.782;20.468;2022-10-23T10:01:50;7.38;;;5.68;;
30346;SDS011;19047;44.782;20.468;2022-10-23T10:05:29;6.82;;;5.55;;
30346;SDS011;19047;44.782;20.468;2022-10-23T10:09:13;7.15;;;5.10;;
30346;SDS011;19047;44.782;20.468;2022-10-23T10:12:41;8.95;;;5.60;;
30346;SDS011;19047;44.782;20.468;2022-10-23T10:27:44;5.38;;;4.88;;
30346;SDS011;19047;44.782;20.468;2022-10-23T10:31:35;4.68;;;3.63;;
30346;SDS011;19047;44.782;20.468;2022-10-23T10:35:24;5.45;;;4.10;;
30346;SDS011;19047;44.782;20.468;2022-10-23T10:39:29;6.68;;;4.20;;
30346;SDS011;19047;44.782;20.468;2022-10-23T10:46:42;6.97;;;4.40;;
30346;SDS011;19047;44.782;20.468;2022-10-23T10:54:11;4.45;;;3.55;;
30346;SDS011;19047;44.782;20.468;2022-10-23T11:05:12;3.97;;;3.35;;
30346;SDS011;19047;44.782;20.468;2022-10-23T11:09:02;5.38;;;3.70;;
30346;SDS011;19047;44.782;20.468;2022-10-23T11:12:28;9.70;;;4.18;;
30346;SDS011;19047;44.782;20.468;2022-10-23T11:16:00;5.15;;;3.15;;
30346;SDS011;19047;44.782;20.468;2022-10-23T11:19:28;4.28;;;3.05;;
30346;SDS011;19047;44.782;20.468;2022-10-23T11:23:21;3.42;;;3.08;;
30346;SDS011;19047;44.782;20.468;2022-10-23T11:27:17;3.17;;;2.72;;
30346;SDS011;19047;44.782;20.468;2022-10-23T11:38:19;3.90;;;2.40;;
30346;SDS011;19047;44.782;20.468;2022-10-23T11:41:53;3.65;;;2.80;;
30346;SDS011;19047;44.782;20.468;2022-10-23T11:48:42;4.10;;;2.58;;
30346;SDS011;19047;44.782;20.468;2022-10-23T11:52:21;3.50;;;2.20;;
30346;SDS011;19047;44.782;20.468;2022-10-23T11:55:54;3.13;;;2.40;;
30346;SDS011;19047;44.782;20.468;2022-10-23T11:59:57;3.53;;;2.47;;
30346;SDS011;19047;44.782;20.468;2022-10-23T12:03:23;2.10;;;1.90;;
30346;SDS011;19047;44.782;20.468;2022-10-23T12:07:02;6.53;;;3.20;;
30346;SDS011;19047;44.782;20.468;2022-10-23T12:10:44;3.25;;;2.22;;
30346;SDS011;19047;44.782;20.468;2022-10-23T12:14:25;2.58;;;2.25;;
30346;SDS011;19047;44.782;20.468;2022-10-23T12:17:42;2.78;;;2.10;;
30346;SDS011;19047;44.782;20.468;2022-10-23T12:21:23;2.40;;;2.00;;
30346;SDS011;19047;44.782;20.468;2022-10-23T12:24:59;4.43;;;2.78;;
30346;SDS011;19047;44.782;20.468;2022-10-23T12:32:04;3.78;;;2.95;;
30346;SDS011;19047;44.782;20.468;2022-10-23T12:36:13;3.22;;;2.38;;
30346;SDS011;19047;44.782;20.468;2022-10-23T12:39:54;3.42;;;2.60;;
30346;SDS011;19047;44.782;20.468;2022-10-23T12:43:26;4.03;;;2.50;;
30346;SDS011;19047;44.782;20.468;2022-10-23T12:46:48;4.00;;;2.67;;
30346;SDS011;19047;44.782;20.468;2022-10-23T12:50:25;2.88;;;2.50;;
30346;SDS011;19047;44.782;20.468;2022-10-23T12:53:47;3.50;;;2.95;;
30346;SDS011;19047;44.782;20.468;2022-10-23T12:57:20;3.42;;;2.35;;
30346;SDS011;19047;44.782;20.468;2022-10-23T13:00:39;3.67;;;2.58;;
30346;SDS011;19047;44.782;20.468;2022-10-23T13:07:48;4.65;;;2.72;;
30346;SDS011;19047;44.782;20.468;2022-10-23T13:11:33;3.03;;;2.42;;
30346;SDS011;19047;44.782;20.468;2022-10-23T13:15:01;4.28;;;2.42;;
30346;SDS011;19047;44.782;20.468;2022-10-23T13:18:44;7.50;;;2.72;;
30346;SDS011;19047;44.782;20.468;2022-10-23T13:22:18;4.13;;;2.83;;
30346;SDS011;19047;44.782;20.468;2022-10-23T13:25:58;4.07;;;2.75;;
30346;SDS011;19047;44.782;20.468;2022-10-23T13:29:30;2.53;;;2.33;;
30346;SDS011;19047;44.782;20.468;2022-10-23T13:33:23;3.05;;;2.30;;
30346;SDS011;19047;44.782;20.468;2022-10-23T13:36:50;3.63;;;2.80;;
30346;SDS011;19047;44.782;20.468;2022-10-23T13:40:25;2.90;;;2.38;;
30346;SDS011;19047;44.782;20.468;2022-10-23T13:43:44;3.35;;;2.40;;
30346;SDS011;19047;44.782;20.468;2022-10-23T13:47:17;2.95;;;2.42;;
30346;SDS011;19047;44.782;20.468;2022-10-23T13:50:34;3.53;;;2.53;;
30346;SDS011;19047;44.782;20.468;2022-10-23T13:54:12;4.00;;;2.40;;
30346;SDS011;19047;44.782;20.468;2022-10-23T13:57:38;2.83;;;2.53;;
30346;SDS011;19047;44.782;20.468;2022-10-23T14:01:11;3.00;;;2.70;;
30346;SDS011;19047;44.782;20.468;2022-10-23T14:04:47;4.70;;;2.72;;
30346;SDS011;19047;44.782;20.468;2022-10-23T14:08:23;3.28;;;2.95;;
30346;SDS011;19047;44.782;20.468;2022-10-23T14:11:40;4.25;;;3.28;;
30346;SDS011;19047;44.782;20.468;2022-10-23T14:15:12;6.18;;;3.13;;
30346;SDS011;19047;44.782;20.468;2022-10-23T14:18:29;5.72;;;3.20;;
30346;SDS011;19047;44.782;20.468;2022-10-23T14:22:04;4.40;;;2.95;;
30346;SDS011;19047;44.782;20.468;2022-10-23T14:26:07;3.65;;;3.08;;
30346;SDS011;19047;44.782;20.468;2022-10-23T14:29:26;5.00;;;3.42;;
30346;SDS011;19047;44.782;20.468;2022-10-23T14:32:59;4.18;;;3.25;;
30346;SDS011;19047;44.782;20.468;2022-10-23T14:36:24;5.03;;;3.55;;
30346;SDS011;19047;44.782;20.468;2022-10-23T14:39:54;4.97;;;2.92;;
30346;SDS011;19047;44.782;20.468;2022-10-23T14:43:12;3.67;;;3.35;;
30346;SDS011;19047;44.782;20.468;2022-10-23T14:46:45;4.13;;;3.10;;
30346;SDS011;19047;44.782;20.468;2022-10-23T14:50:02;6.15;;;3.28;;
30346;SDS011;19047;44.782;20.468;2022-10-23T14:53:34;4.45;;;2.95;;
30346;SDS011;19047;44.782;20.468;2022-10-23T14:56:51;3.90;;;3.38;;
30346;SDS011;19047;44.782;20.468;2022-10-23T15:00:22;5.15;;;3.40;;
30346;SDS011;19047;44.782;20.468;2022-10-23T15:03:43;3.35;;;3.05;;
30346;SDS011;19047;44.782;20.468;2022-10-23T15:07:18;4.10;;;3.00;;
30346;SDS011;19047;44.782;20.468;2022-10-23T15:10:35;4.13;;;3.20;;
30346;SDS011;19047;44.782;20.468;2022-10-23T15:14:06;4.88;;;2.90;;
30346;SDS011;19047;44.782;20.468;2022-10-23T15:17:23;4.38;;;3.38;;
30346;SDS011;19047;44.782;20.468;2022-10-23T15:20:55;4.32;;;3.20;;
30346;SDS011;19047;44.782;20.468;2022-10-23T15:24:12;6.55;;;4.00;;
30346;SDS011;19047;44.782;20.468;2022-10-23T15:27:45;3.85;;;3.53;;
30346;SDS011;19047;44.782;20.468;2022-10-23T15:31:02;4.90;;;3.47;;
30346;SDS011;19047;44.782;20.468;2022-10-23T15:34:34;6.90;;;4.60;;
30346;SDS011;19047;44.782;20.468;2022-10-23T15:37:53;4.90;;;4.07;;
30346;SDS011;19047;44.782;20.468;2022-10-23T15:41:28;8.13;;;4.30;;
30346;SDS011;19047;44.782;20.468;2022-10-23T15:44:50;9.30;;;4.47;;
30346;SDS011;19047;44.782;20.468;2022-10-23T15:48:24;9.70;;;4.50;;
30346;SDS011;19047;44.782;20.468;2022-10-23T15:51:41;7.85;;;4.22;;
30346;SDS011;19047;44.782;20.468;2022-10-23T15:55:13;6.38;;;4.57;;
30346;SDS011;19047;44.782;20.468;2022-10-23T15:58:31;9.07;;;5.18;;
30346;SDS011;19047;44.782;20.468;2022-10-23T16:02:08;7.25;;;4.88;;
30346;SDS011;19047;44.782;20.468;2022-10-23T16:05:27;8.75;;;5.22;;
30346;SDS011;19047;44.782;20.468;2022-10-23T16:08:57;6.75;;;4.50;;
30346;SDS011;19047;44.782;20.468;2022-10-23T16:12:14;8.88;;;4.63;;
30346;SDS011;19047;44.782;20.468;2022-10-23T16:15:47;8.50;;;4.88;;
30346;SDS011;19047;44.782;20.468;2022-10-23T16:19:04;10.73;;;5.90;;
30346;SDS011;19047;44.782;20.468;2022-10-23T16:22:34;10.60;;;5.57;;
30346;SDS011;19047;44.782;20.468;2022-10-23T16:25:52;9.00;;;6.18;;
30346;SDS011;19047;44.782;20.468;2022-10-23T16:29:24;14.10;;;6.35;;
30346;SDS011;19047;44.782;20.468;2022-10-23T16:32:47;10.90;;;5.80;;
30346;SDS011;19047;44.782;20.468;2022-10-23T16:36:17;10.40;;;5.32;;
30346;SDS011;19047;44.782;20.468;2022-10-23T16:40:07;12.25;;;6.05;;
30346;SDS011;19047;44.782;20.468;2022-10-23T16:44:14;13.32;;;7.03;;
30346;SDS011;19047;44.782;20.468;2022-10-23T16:47:42;15.32;;;7.60;;
30346;SDS011;19047;44.782;20.468;2022-10-23T16:51:15;11.20;;;6.93;;
30346;SDS011;19047;44.782;20.468;2022-10-23T16:54:34;13.13;;;7.32;;
30346;SDS011;19047;44.782;20.468;2022-10-23T16:58:04;13.45;;;7.85;;
30346;SDS011;19047;44.782;20.468;2022-10-23T17:01:22;12.35;;;7.25;;
30346;SDS011;19047;44.782;20.468;2022-10-23T17:04:56;9.27;;;6.43;;
30346;SDS011;19047;44.782;20.468;2022-10-23T17:08:14;11.35;;;6.60;;
30346;SDS011;19047;44.782;20.468;2022-10-23T17:11:45;10.13;;;6.82;;
30346;SDS011;19047;44.782;20.468;2022-10-23T17:15:03;8.07;;;6.35;;
30346;SDS011;19047;44.782;20.468;2022-10-23T17:18:35;9.20;;;6.20;;
30346;SDS011;19047;44.782;20.468;2022-10-23T17:21:54;9.35;;;7.00;;
30346;SDS011;19047;44.782;20.468;2022-10-23T17:25:33;8.63;;;6.18;;
30346;SDS011;19047;44.782;20.468;2022-10-23T17:28:50;8.93;;;6.95;;
30346;SDS011;19047;44.782;20.468;2022-10-23T17:32:20;10.55;;;7.65;;
30346;SDS011;19047;44.782;20.468;2022-10-23T17:35:39;11.63;;;7.95;;
30346;SDS011;19047;44.782;20.468;2022-10-23T17:39:15;14.35;;;9.00;;
30346;SDS011;19047;44.782;20.468;2022-10-23T17:42:35;12.88;;;7.75;;
30346;SDS011;19047;44.782;20.468;2022-10-23T17:46:10;9.68;;;7.05;;
30346;SDS011;19047;44.782;20.468;2022-10-23T17:49:28;10.55;;;7.18;;
30346;SDS011;19047;44.782;20.468;2022-10-23T18:17:13;8.70;;;6.82;;
30346;SDS011;19047;44.782;20.468;2022-10-23T18:20:30;11.20;;;8.35;;
